sensor_id;sensor_type;location;lat;lon;timestamp;pressure;altitude;pressure_sealevel;temperature
15626;BMP180;7912;51.376;6.126;2022-11-20T00:01:33;101010.00;;;6.00
15626;BMP180;7912;51.376;6.126;2022-11-20T00:04:01;100990.00;;;6.10
15626;BMP180;7912;51.376;6.126;2022-11-20T00:06:29;101003.00;;;6.10
15626;BMP180;7912;51.376;6.126;2022-11-20T00:09:00;101006.00;;;6.10
15626;BMP180;7912;51.376;6.126;2022-11-20T00:11:30;100996.00;;;6.10
15626;BMP180;7912;51.376;6.126;2022-11-20T00:14:00;100990.00;;;6.10
15626;BMP180;7912;51.376;6.126;2022-11-20T00:16:32;100985.00;;;6.20
15626;BMP180;7912;51.376;6.126;2022-11-20T00:18:59;101006.00;;;6.10
15626;BMP180;7912;51.376;6.126;2022-11-20T00:21:28;100988.00;;;6.10
15626;BMP180;7912;51.376;6.126;2022-11-20T00:23:57;100982.00;;;6.10
15626;BMP180;7912;51.376;6.126;2022-11-20T00:26:26;100967.00;;;6.10
15626;BMP180;7912;51.376;6.126;2022-11-20T00:28:59;100978.00;;;6.10
15626;BMP180;7912;51.376;6.126;2022-11-20T00:31:29;100970.00;;;6.20
15626;BMP180;7912;51.376;6.126;2022-11-20T00:33:56;100972.00;;;6.10
15626;BMP180;7912;51.376;6.126;2022-11-20T00:36:27;100970.00;;;6.10
15626;BMP180;7912;51.376;6.126;2022-11-20T00:38:59;100968.00;;;6.10
15626;BMP180;7912;51.376;6.126;2022-11-20T00:41:29;100974.00;;;6.10
15626;BMP180;7912;51.376;6.126;2022-11-20T00:44:00;100968.00;;;6.10
15626;BMP180;7912;51.376;6.126;2022-11-20T00:46:28;100958.00;;;6.10
15626;BMP180;7912;51.376;6.126;2022-11-20T00:48:59;100952.00;;;6.10
15626;BMP180;7912;51.376;6.126;2022-11-20T00:51:27;100959.00;;;6.00
15626;BMP180;7912;51.376;6.126;2022-11-20T00:53:57;100951.00;;;6.00
15626;BMP180;7912;51.376;6.126;2022-11-20T00:56:26;100967.00;;;6.00
15626;BMP180;7912;51.376;6.126;2022-11-20T00:59:00;100954.00;;;5.90
15626;BMP180;7912;51.376;6.126;2022-11-20T01:01:36;100952.00;;;5.90
15626;BMP180;7912;51.376;6.126;2022-11-20T01:04:03;100944.00;;;5.90
15626;BMP180;7912;51.376;6.126;2022-11-20T01:06:37;100931.00;;;5.80
15626;BMP180;7912;51.376;6.126;2022-11-20T01:09:13;100943.00;;;5.60
15626;BMP180;7912;51.376;6.126;2022-11-20T01:11:45;100954.00;;;5.50
15626;BMP180;7912;51.376;6.126;2022-11-20T01:14:18;100948.00;;;5.40
15626;BMP180;7912;51.376;6.126;2022-11-20T01:16:51;100949.00;;;5.30
15626;BMP180;7912;51.376;6.126;2022-11-20T01:19:22;100932.00;;;5.20
15626;BMP180;7912;51.376;6.126;2022-11-20T01:21:53;100936.00;;;5.10
15626;BMP180;7912;51.376;6.126;2022-11-20T01:24:22;100944.00;;;5.10
15626;BMP180;7912;51.376;6.126;2022-11-20T01:26:52;100943.00;;;5.00
15626;BMP180;7912;51.376;6.126;2022-11-20T01:29:23;100940.00;;;4.90
15626;BMP180;7912;51.376;6.126;2022-11-20T01:31:52;100942.00;;;4.80
15626;BMP180;7912;51.376;6.126;2022-11-20T01:34:21;100936.00;;;4.80
15626;BMP180;7912;51.376;6.126;2022-11-20T01:36:51;100937.00;;;4.70
15626;BMP180;7912;51.376;6.126;2022-11-20T01:39:23;100937.00;;;4.70
15626;BMP180;7912;51.376;6.126;2022-11-20T01:41:53;100930.00;;;4.60
15626;BMP180;7912;51.376;6.126;2022-11-20T01:44:57;100947.00;;;4.50
15626;BMP180;7912;51.376;6.126;2022-11-20T01:47:39;100947.00;;;4.50
15626;BMP180;7912;51.376;6.126;2022-11-20T01:50:26;100947.00;;;4.40
15626;BMP180;7912;51.376;6.126;2022-11-20T01:53:05;100952.00;;;4.40
15626;BMP180;7912;51.376;6.126;2022-11-20T01:55:39;100945.00;;;4.30
15626;BMP180;7912;51.376;6.126;2022-11-20T01:58:08;100960.00;;;4.20
15626;BMP180;7912;51.376;6.126;2022-11-20T02:00:36;100952.00;;;4.10
15626;BMP180;7912;51.376;6.126;2022-11-20T02:03:17;100950.00;;;4.10
15626;BMP180;7912;51.376;6.126;2022-11-20T02:06:16;100946.00;;;4.00
15626;BMP180;7912;51.376;6.126;2022-11-20T02:08:46;100937.00;;;4.00
15626;BMP180;7912;51.376;6.126;2022-11-20T02:11:13;100939.00;;;3.90
15626;BMP180;7912;51.376;6.126;2022-11-20T02:13:42;100936.00;;;3.80
15626;BMP180;7912;51.376;6.126;2022-11-20T02:16:23;100945.00;;;3.80
15626;BMP180;7912;51.376;6.126;2022-11-20T02:18:52;100933.00;;;3.70
15626;BMP180;7912;51.376;6.126;2022-11-20T02:24:24;100939.00;;;3.60
15626;BMP180;7912;51.376;6.126;2022-11-20T02:27:04;100926.00;;;3.50
15626;BMP180;7912;51.376;6.126;2022-11-20T02:29:42;100942.00;;;3.50
15626;BMP180;7912;51.376;6.126;2022-11-20T02:32:33;100943.00;;;3.40
15626;BMP180;7912;51.376;6.126;2022-11-20T02:35:35;100949.00;;;3.40
15626;BMP180;7912;51.376;6.126;2022-11-20T02:37:59;100938.00;;;3.30
15626;BMP180;7912;51.376;6.126;2022-11-20T02:40:28;100940.00;;;3.30
15626;BMP180;7912;51.376;6.126;2022-11-20T02:42:58;100935.00;;;3.30
15626;BMP180;7912;51.376;6.126;2022-11-20T02:45:28;100934.00;;;3.30
15626;BMP180;7912;51.376;6.126;2022-11-20T02:48:02;100937.00;;;3.30
15626;BMP180;7912;51.376;6.126;2022-11-20T02:50:29;100934.00;;;3.30
15626;BMP180;7912;51.376;6.126;2022-11-20T02:52:56;100933.00;;;3.30
15626;BMP180;7912;51.376;6.126;2022-11-20T02:55:24;100939.00;;;3.40
15626;BMP180;7912;51.376;6.126;2022-11-20T02:57:51;100944.00;;;3.50
15626;BMP180;7912;51.376;6.126;2022-11-20T03:00:18;100941.00;;;3.50
15626;BMP180;7912;51.376;6.126;2022-11-20T03:02:49;100947.00;;;3.60
15626;BMP180;7912;51.376;6.126;2022-11-20T03:05:16;100941.00;;;3.70
15626;BMP180;7912;51.376;6.126;2022-11-20T03:08:20;100941.00;;;3.70
15626;BMP180;7912;51.376;6.126;2022-11-20T03:10:48;100931.00;;;3.80
15626;BMP180;7912;51.376;6.126;2022-11-20T03:13:15;100928.00;;;3.80
15626;BMP180;7912;51.376;6.126;2022-11-20T03:15:45;100925.00;;;3.90
15626;BMP180;7912;51.376;6.126;2022-11-20T03:18:12;100943.00;;;3.90
15626;BMP180;7912;51.376;6.126;2022-11-20T03:20:40;100941.00;;;4.00
15626;BMP180;7912;51.376;6.126;2022-11-20T03:23:07;100946.00;;;4.10
15626;BMP180;7912;51.376;6.126;2022-11-20T03:25:34;100937.00;;;4.20
15626;BMP180;7912;51.376;6.126;2022-11-20T03:28:02;100941.00;;;4.30
15626;BMP180;7912;51.376;6.126;2022-11-20T03:30:29;100936.00;;;4.40
15626;BMP180;7912;51.376;6.126;2022-11-20T03:32:59;100928.00;;;4.40
15626;BMP180;7912;51.376;6.126;2022-11-20T03:35:27;100922.00;;;4.40
15626;BMP180;7912;51.376;6.126;2022-11-20T03:37:54;100919.00;;;4.50
15626;BMP180;7912;51.376;6.126;2022-11-20T03:40:23;100910.00;;;4.60
15626;BMP180;7912;51.376;6.126;2022-11-20T03:42:50;100924.00;;;4.60
15626;BMP180;7912;51.376;6.126;2022-11-20T03:45:18;100913.00;;;4.60
15626;BMP180;7912;51.376;6.126;2022-11-20T03:47:46;100908.00;;;4.70
15626;BMP180;7912;51.376;6.126;2022-11-20T03:50:14;100896.00;;;4.70
15626;BMP180;7912;51.376;6.126;2022-11-20T03:52:41;100901.00;;;4.80
15626;BMP180;7912;51.376;6.126;2022-11-20T03:55:08;100903.00;;;4.90
15626;BMP180;7912;51.376;6.126;2022-11-20T03:57:36;100894.00;;;4.90
15626;BMP180;7912;51.376;6.126;2022-11-20T04:00:05;100902.00;;;4.90
15626;BMP180;7912;51.376;6.126;2022-11-20T04:02:32;100898.00;;;4.90
15626;BMP180;7912;51.376;6.126;2022-11-20T04:04:59;100886.00;;;4.90
15626;BMP180;7912;51.376;6.126;2022-11-20T04:07:30;100877.00;;;5.00
15626;BMP180;7912;51.376;6.126;2022-11-20T04:09:57;100889.00;;;5.00
15626;BMP180;7912;51.376;6.126;2022-11-20T04:12:24;100865.00;;;5.00
15626;BMP180;7912;51.376;6.126;2022-11-20T04:14:54;100880.00;;;5.00
15626;BMP180;7912;51.376;6.126;2022-11-20T04:17:24;100878.00;;;5.00
15626;BMP180;7912;51.376;6.126;2022-11-20T04:19:51;100881.00;;;5.00
15626;BMP180;7912;51.376;6.126;2022-11-20T04:22:18;100873.00;;;5.00
15626;BMP180;7912;51.376;6.126;2022-11-20T04:24:45;100871.00;;;5.00
15626;BMP180;7912;51.376;6.126;2022-11-20T04:27:13;100863.00;;;5.00
15626;BMP180;7912;51.376;6.126;2022-11-20T04:29:40;100893.00;;;5.00
15626;BMP180;7912;51.376;6.126;2022-11-20T04:32:07;100881.00;;;5.00
15626;BMP180;7912;51.376;6.126;2022-11-20T04:34:34;100881.00;;;5.00
15626;BMP180;7912;51.376;6.126;2022-11-20T04:37:01;100888.00;;;5.10
15626;BMP180;7912;51.376;6.126;2022-11-20T04:39:29;100871.00;;;5.10
15626;BMP180;7912;51.376;6.126;2022-11-20T04:41:56;100883.00;;;5.10
15626;BMP180;7912;51.376;6.126;2022-11-20T04:44:55;100874.00;;;5.10
15626;BMP180;7912;51.376;6.126;2022-11-20T04:47:23;100877.00;;;5.20
15626;BMP180;7912;51.376;6.126;2022-11-20T04:49:50;100862.00;;;5.30
15626;BMP180;7912;51.376;6.126;2022-11-20T04:52:20;100872.00;;;5.30
15626;BMP180;7912;51.376;6.126;2022-11-20T04:54:47;100868.00;;;5.40
15626;BMP180;7912;51.376;6.126;2022-11-20T04:57:15;100867.00;;;5.50
15626;BMP180;7912;51.376;6.126;2022-11-20T04:59:42;100864.00;;;5.50
15626;BMP180;7912;51.376;6.126;2022-11-20T05:02:10;100864.00;;;5.50
15626;BMP180;7912;51.376;6.126;2022-11-20T05:04:40;100864.00;;;5.60
15626;BMP180;7912;51.376;6.126;2022-11-20T05:07:07;100855.00;;;5.60
15626;BMP180;7912;51.376;6.126;2022-11-20T05:09:35;100856.00;;;5.60
15626;BMP180;7912;51.376;6.126;2022-11-20T05:12:02;100866.00;;;5.70
15626;BMP180;7912;51.376;6.126;2022-11-20T05:14:29;100867.00;;;5.70
15626;BMP180;7912;51.376;6.126;2022-11-20T05:16:59;100858.00;;;5.70
15626;BMP180;7912;51.376;6.126;2022-11-20T05:19:26;100859.00;;;5.70
15626;BMP180;7912;51.376;6.126;2022-11-20T05:21:53;100870.00;;;5.80
15626;BMP180;7912;51.376;6.126;2022-11-20T05:24:20;100865.00;;;5.80
15626;BMP180;7912;51.376;6.126;2022-11-20T05:26:48;100872.00;;;5.80
15626;BMP180;7912;51.376;6.126;2022-11-20T05:29:15;100858.00;;;5.80
15626;BMP180;7912;51.376;6.126;2022-11-20T05:31:42;100849.00;;;5.90
15626;BMP180;7912;51.376;6.126;2022-11-20T05:34:09;100851.00;;;5.90
15626;BMP180;7912;51.376;6.126;2022-11-20T05:36:36;100852.00;;;5.90
15626;BMP180;7912;51.376;6.126;2022-11-20T05:39:03;100845.00;;;5.90
15626;BMP180;7912;51.376;6.126;2022-11-20T05:41:32;100837.00;;;5.90
15626;BMP180;7912;51.376;6.126;2022-11-20T05:44:00;100848.00;;;5.80
15626;BMP180;7912;51.376;6.126;2022-11-20T05:46:27;100849.00;;;5.80
15626;BMP180;7912;51.376;6.126;2022-11-20T05:48:57;100862.00;;;5.80
15626;BMP180;7912;51.376;6.126;2022-11-20T05:51:26;100833.00;;;5.80
15626;BMP180;7912;51.376;6.126;2022-11-20T05:53:53;100845.00;;;5.80
15626;BMP180;7912;51.376;6.126;2022-11-20T05:56:22;100857.00;;;5.80
15626;BMP180;7912;51.376;6.126;2022-11-20T05:58:50;100837.00;;;5.80
15626;BMP180;7912;51.376;6.126;2022-11-20T06:01:23;100843.00;;;5.70
15626;BMP180;7912;51.376;6.126;2022-11-20T06:03:52;100845.00;;;5.70
15626;BMP180;7912;51.376;6.126;2022-11-20T06:06:20;100844.00;;;5.70
15626;BMP180;7912;51.376;6.126;2022-11-20T06:08:50;100828.00;;;5.60
15626;BMP180;7912;51.376;6.126;2022-11-20T06:11:21;100844.00;;;5.60
15626;BMP180;7912;51.376;6.126;2022-11-20T06:13:48;100849.00;;;5.50
15626;BMP180;7912;51.376;6.126;2022-11-20T06:16:19;100847.00;;;5.50
15626;BMP180;7912;51.376;6.126;2022-11-20T06:18:47;100846.00;;;5.50
15626;BMP180;7912;51.376;6.126;2022-11-20T06:21:22;100855.00;;;5.50
15626;BMP180;7912;51.376;6.126;2022-11-20T06:23:50;100858.00;;;5.50
15626;BMP180;7912;51.376;6.126;2022-11-20T06:26:26;100859.00;;;5.40
15626;BMP180;7912;51.376;6.126;2022-11-20T06:28:54;100857.00;;;5.40
15626;BMP180;7912;51.376;6.126;2022-11-20T06:31:24;100873.00;;;5.40
15626;BMP180;7912;51.376;6.126;2022-11-20T06:33:52;100866.00;;;5.30
15626;BMP180;7912;51.376;6.126;2022-11-20T06:36:22;100864.00;;;5.40
15626;BMP180;7912;51.376;6.126;2022-11-20T06:38:49;100856.00;;;5.40
15626;BMP180;7912;51.376;6.126;2022-11-20T06:41:20;100869.00;;;5.40
15626;BMP180;7912;51.376;6.126;2022-11-20T06:43:48;100870.00;;;5.40
15626;BMP180;7912;51.376;6.126;2022-11-20T06:46:17;100875.00;;;5.50
15626;BMP180;7912;51.376;6.126;2022-11-20T06:48:46;100874.00;;;5.50
15626;BMP180;7912;51.376;6.126;2022-11-20T06:51:15;100888.00;;;5.60
15626;BMP180;7912;51.376;6.126;2022-11-20T06:53:42;100898.00;;;5.60
15626;BMP180;7912;51.376;6.126;2022-11-20T06:56:09;100888.00;;;5.70
15626;BMP180;7912;51.376;6.126;2022-11-20T06:58:37;100895.00;;;5.70
15626;BMP180;7912;51.376;6.126;2022-11-20T07:01:09;100892.00;;;5.80
15626;BMP180;7912;51.376;6.126;2022-11-20T07:03:37;100881.00;;;5.80
15626;BMP180;7912;51.376;6.126;2022-11-20T07:06:08;100869.00;;;5.90
15626;BMP180;7912;51.376;6.126;2022-11-20T07:08:36;100877.00;;;5.90
15626;BMP180;7912;51.376;6.126;2022-11-20T07:11:06;100873.00;;;6.00
15626;BMP180;7912;51.376;6.126;2022-11-20T07:13:36;100867.00;;;6.00
15626;BMP180;7912;51.376;6.126;2022-11-20T07:16:07;100879.00;;;6.10
15626;BMP180;7912;51.376;6.126;2022-11-20T07:18:35;100863.00;;;6.10
15626;BMP180;7912;51.376;6.126;2022-11-20T07:21:40;100877.00;;;6.10
15626;BMP180;7912;51.376;6.126;2022-11-20T07:24:07;100872.00;;;6.10
15626;BMP180;7912;51.376;6.126;2022-11-20T07:26:35;100864.00;;;6.10
15626;BMP180;7912;51.376;6.126;2022-11-20T07:29:02;100864.00;;;6.20
15626;BMP180;7912;51.376;6.126;2022-11-20T07:31:30;100870.00;;;6.20
15626;BMP180;7912;51.376;6.126;2022-11-20T07:33:57;100864.00;;;6.30
15626;BMP180;7912;51.376;6.126;2022-11-20T07:36:24;100845.00;;;6.30
15626;BMP180;7912;51.376;6.126;2022-11-20T07:38:52;100865.00;;;6.40
15626;BMP180;7912;51.376;6.126;2022-11-20T07:41:19;100857.00;;;6.40
15626;BMP180;7912;51.376;6.126;2022-11-20T07:43:49;100873.00;;;6.40
15626;BMP180;7912;51.376;6.126;2022-11-20T07:46:17;100868.00;;;6.50
15626;BMP180;7912;51.376;6.126;2022-11-20T07:48:44;100866.00;;;6.50
15626;BMP180;7912;51.376;6.126;2022-11-20T07:51:11;100873.00;;;6.50
15626;BMP180;7912;51.376;6.126;2022-11-20T07:53:39;100874.00;;;6.60
15626;BMP180;7912;51.376;6.126;2022-11-20T07:56:07;100862.00;;;6.60
15626;BMP180;7912;51.376;6.126;2022-11-20T07:58:36;100857.00;;;6.70
15626;BMP180;7912;51.376;6.126;2022-11-20T08:01:05;100870.00;;;6.70
15626;BMP180;7912;51.376;6.126;2022-11-20T08:03:34;100865.00;;;6.70
15626;BMP180;7912;51.376;6.126;2022-11-20T08:06:02;100857.00;;;6.80
15626;BMP180;7912;51.376;6.126;2022-11-20T08:08:29;100863.00;;;6.80
15626;BMP180;7912;51.376;6.126;2022-11-20T08:11:00;100858.00;;;6.80
15626;BMP180;7912;51.376;6.126;2022-11-20T08:13:45;100847.00;;;6.90
15626;BMP180;7912;51.376;6.126;2022-11-20T08:16:31;100846.00;;;6.80
15626;BMP180;7912;51.376;6.126;2022-11-20T08:18:58;100849.00;;;6.80
15626;BMP180;7912;51.376;6.126;2022-11-20T08:21:26;100849.00;;;6.90
15626;BMP180;7912;51.376;6.126;2022-11-20T08:23:53;100852.00;;;6.90
15626;BMP180;7912;51.376;6.126;2022-11-20T08:26:24;100846.00;;;6.90
15626;BMP180;7912;51.376;6.126;2022-11-20T08:29:03;100847.00;;;6.90
15626;BMP180;7912;51.376;6.126;2022-11-20T08:31:38;100833.00;;;6.90
15626;BMP180;7912;51.376;6.126;2022-11-20T08:34:10;100834.00;;;7.00
15626;BMP180;7912;51.376;6.126;2022-11-20T08:36:44;100844.00;;;7.00
15626;BMP180;7912;51.376;6.126;2022-11-20T08:39:17;100837.00;;;7.10
15626;BMP180;7912;51.376;6.126;2022-11-20T08:41:46;100846.00;;;7.10
15626;BMP180;7912;51.376;6.126;2022-11-20T08:44:14;100830.00;;;7.10
15626;BMP180;7912;51.376;6.126;2022-11-20T08:46:56;100817.00;;;7.20
15626;BMP180;7912;51.376;6.126;2022-11-20T08:49:24;100828.00;;;7.30
15626;BMP180;7912;51.376;6.126;2022-11-20T08:51:52;100827.00;;;7.40
15626;BMP180;7912;51.376;6.126;2022-11-20T08:54:23;100812.00;;;7.60
15626;BMP180;7912;51.376;6.126;2022-11-20T08:56:55;100833.00;;;7.70
15626;BMP180;7912;51.376;6.126;2022-11-20T08:59:24;100827.00;;;7.90
15626;BMP180;7912;51.376;6.126;2022-11-20T09:02:14;100823.00;;;8.10
15626;BMP180;7912;51.376;6.126;2022-11-20T09:04:45;100825.00;;;8.30
15626;BMP180;7912;51.376;6.126;2022-11-20T09:07:15;100824.00;;;8.40
15626;BMP180;7912;51.376;6.126;2022-11-20T09:09:44;100825.00;;;8.60
15626;BMP180;7912;51.376;6.126;2022-11-20T09:12:12;100814.00;;;8.70
15626;BMP180;7912;51.376;6.126;2022-11-20T09:14:42;100819.00;;;8.80
15626;BMP180;7912;51.376;6.126;2022-11-20T09:17:11;100819.00;;;8.80
15626;BMP180;7912;51.376;6.126;2022-11-20T09:19:44;100822.00;;;8.80
15626;BMP180;7912;51.376;6.126;2022-11-20T09:22:14;100819.00;;;8.90
15626;BMP180;7912;51.376;6.126;2022-11-20T09:24:41;100834.00;;;8.90
15626;BMP180;7912;51.376;6.126;2022-11-20T09:27:13;100821.00;;;9.00
15626;BMP180;7912;51.376;6.126;2022-11-20T09:33:51;100817.00;;;9.00
15626;BMP180;7912;51.376;6.126;2022-11-20T09:36:20;100820.00;;;9.00
15626;BMP180;7912;51.376;6.126;2022-11-20T09:38:48;100806.00;;;9.10
15626;BMP180;7912;51.376;6.126;2022-11-20T09:47:44;100807.00;;;9.20
15626;BMP180;7912;51.376;6.126;2022-11-20T09:50:45;100810.00;;;9.20
15626;BMP180;7912;51.376;6.126;2022-11-20T09:54:00;100804.00;;;9.20
15626;BMP180;7912;51.376;6.126;2022-11-20T09:56:33;100789.00;;;9.20
15626;BMP180;7912;51.376;6.126;2022-11-20T09:59:05;100794.00;;;9.20
15626;BMP180;7912;51.376;6.126;2022-11-20T10:01:46;100792.00;;;9.20
15626;BMP180;7912;51.376;6.126;2022-11-20T10:04:21;100777.00;;;9.20
15626;BMP180;7912;51.376;6.126;2022-11-20T10:07:16;100784.00;;;9.20
15626;BMP180;7912;51.376;6.126;2022-11-20T10:10:19;100778.00;;;9.20
15626;BMP180;7912;51.376;6.126;2022-11-20T10:13:35;100777.00;;;9.10
15626;BMP180;7912;51.376;6.126;2022-11-20T10:22:48;100769.00;;;8.90
15626;BMP180;7912;51.376;6.126;2022-11-20T10:25:39;100760.00;;;8.90
15626;BMP180;7912;51.376;6.126;2022-11-20T10:28:28;100757.00;;;8.90
15626;BMP180;7912;51.376;6.126;2022-11-20T10:31:08;100753.00;;;8.90
15626;BMP180;7912;51.376;6.126;2022-11-20T10:33:42;100742.00;;;8.90
15626;BMP180;7912;51.376;6.126;2022-11-20T10:36:38;100756.00;;;9.00
15626;BMP180;7912;51.376;6.126;2022-11-20T10:39:21;100748.00;;;9.10
15626;BMP180;7912;51.376;6.126;2022-11-20T10:41:52;100743.00;;;9.10
15626;BMP180;7912;51.376;6.126;2022-11-20T10:44:29;100732.00;;;9.20
15626;BMP180;7912;51.376;6.126;2022-11-20T10:47:22;100728.00;;;9.20
15626;BMP180;7912;51.376;6.126;2022-11-20T10:50:02;100714.00;;;9.30
15626;BMP180;7912;51.376;6.126;2022-11-20T10:52:56;100703.00;;;9.40
15626;BMP180;7912;51.376;6.126;2022-11-20T10:55:47;100701.00;;;9.50
15626;BMP180;7912;51.376;6.126;2022-11-20T10:58:50;100687.00;;;9.60
15626;BMP180;7912;51.376;6.126;2022-11-20T11:01:22;100685.00;;;9.70
15626;BMP180;7912;51.376;6.126;2022-11-20T11:04:00;100687.00;;;9.70
15626;BMP180;7912;51.376;6.126;2022-11-20T11:06:46;100667.00;;;9.70
15626;BMP180;7912;51.376;6.126;2022-11-20T11:09:38;100683.00;;;9.80
15626;BMP180;7912;51.376;6.126;2022-11-20T11:12:09;100659.00;;;9.80
15626;BMP180;7912;51.376;6.126;2022-11-20T11:14:55;100660.00;;;9.90
15626;BMP180;7912;51.376;6.126;2022-11-20T11:17:34;100659.00;;;10.00
15626;BMP180;7912;51.376;6.126;2022-11-20T11:22:58;100665.00;;;10.00
15626;BMP180;7912;51.376;6.126;2022-11-20T11:25:33;100662.00;;;10.00
15626;BMP180;7912;51.376;6.126;2022-11-20T11:30:46;100633.00;;;10.10
15626;BMP180;7912;51.376;6.126;2022-11-20T11:33:24;100630.00;;;10.20
15626;BMP180;7912;51.376;6.126;2022-11-20T11:35:55;100637.00;;;10.20
15626;BMP180;7912;51.376;6.126;2022-11-20T11:38:43;100616.00;;;10.20
15626;BMP180;7912;51.376;6.126;2022-11-20T11:41:23;100619.00;;;10.30
15626;BMP180;7912;51.376;6.126;2022-11-20T11:44:02;100605.00;;;10.40
15626;BMP180;7912;51.376;6.126;2022-11-20T11:47:24;100602.00;;;10.50
15626;BMP180;7912;51.376;6.126;2022-11-20T11:52:51;100610.00;;;10.50
15626;BMP180;7912;51.376;6.126;2022-11-20T11:55:54;100604.00;;;10.50
15626;BMP180;7912;51.376;6.126;2022-11-20T11:58:51;100608.00;;;10.40
15626;BMP180;7912;51.376;6.126;2022-11-20T12:01:45;100596.00;;;10.30
15626;BMP180;7912;51.376;6.126;2022-11-20T12:04:40;100605.00;;;10.30
15626;BMP180;7912;51.376;6.126;2022-11-20T12:07:42;100595.00;;;10.30
15626;BMP180;7912;51.376;6.126;2022-11-20T12:10:33;100606.00;;;10.30
15626;BMP180;7912;51.376;6.126;2022-11-20T12:15:58;100594.00;;;10.30
15626;BMP180;7912;51.376;6.126;2022-11-20T12:18:26;100589.00;;;10.30
15626;BMP180;7912;51.376;6.126;2022-11-20T12:30:19;100552.00;;;10.10
15626;BMP180;7912;51.376;6.126;2022-11-20T12:36:27;100555.00;;;10.10
15626;BMP180;7912;51.376;6.126;2022-11-20T12:57:54;100506.00;;;10.20
15626;BMP180;7912;51.376;6.126;2022-11-20T13:00:25;100489.00;;;10.20
15626;BMP180;7912;51.376;6.126;2022-11-20T13:03:22;100483.00;;;10.20
15626;BMP180;7912;51.376;6.126;2022-11-20T13:06:18;100477.00;;;10.20
15626;BMP180;7912;51.376;6.126;2022-11-20T13:08:54;100473.00;;;10.20
15626;BMP180;7912;51.376;6.126;2022-11-20T13:19:56;100469.00;;;10.30
15626;BMP180;7912;51.376;6.126;2022-11-20T13:22:46;100463.00;;;10.30
15626;BMP180;7912;51.376;6.126;2022-11-20T13:27:51;100443.00;;;10.30
15626;BMP180;7912;51.376;6.126;2022-11-20T13:30:28;100439.00;;;10.30
15626;BMP180;7912;51.376;6.126;2022-11-20T13:33:23;100446.00;;;10.30
15626;BMP180;7912;51.376;6.126;2022-11-20T13:36:06;100427.00;;;10.30
15626;BMP180;7912;51.376;6.126;2022-11-20T13:38:51;100428.00;;;10.30
15626;BMP180;7912;51.376;6.126;2022-11-20T13:41:33;100427.00;;;10.30
15626;BMP180;7912;51.376;6.126;2022-11-20T13:46:54;100405.00;;;10.20
15626;BMP180;7912;51.376;6.126;2022-11-20T13:49:32;100395.00;;;10.20
15626;BMP180;7912;51.376;6.126;2022-11-20T14:00:18;100391.00;;;10.20
15626;BMP180;7912;51.376;6.126;2022-11-20T14:03:08;100384.00;;;10.20
15626;BMP180;7912;51.376;6.126;2022-11-20T14:05:45;100367.00;;;10.20
15626;BMP180;7912;51.376;6.126;2022-11-20T14:08:36;100365.00;;;10.20
15626;BMP180;7912;51.376;6.126;2022-11-20T14:11:19;100362.00;;;10.20
15626;BMP180;7912;51.376;6.126;2022-11-20T14:16:26;100334.00;;;10.20
15626;BMP180;7912;51.376;6.126;2022-11-20T14:19:17;100332.00;;;10.20
15626;BMP180;7912;51.376;6.126;2022-11-20T14:24:40;100332.00;;;10.20
15626;BMP180;7912;51.376;6.126;2022-11-20T14:27:21;100318.00;;;10.20
15626;BMP180;7912;51.376;6.126;2022-11-20T14:29:51;100318.00;;;10.30
15626;BMP180;7912;51.376;6.126;2022-11-20T14:32:29;100316.00;;;10.30
15626;BMP180;7912;51.376;6.126;2022-11-20T14:35:10;100309.00;;;10.30
15626;BMP180;7912;51.376;6.126;2022-11-20T14:37:41;100306.00;;;10.30
15626;BMP180;7912;51.376;6.126;2022-11-20T14:40:35;100306.00;;;10.30
15626;BMP180;7912;51.376;6.126;2022-11-20T14:43:25;100302.00;;;10.30
15626;BMP180;7912;51.376;6.126;2022-11-20T14:46:09;100294.00;;;10.30
15626;BMP180;7912;51.376;6.126;2022-11-20T14:48:53;100292.00;;;10.30
15626;BMP180;7912;51.376;6.126;2022-11-20T14:51:37;100287.00;;;10.30
15626;BMP180;7912;51.376;6.126;2022-11-20T14:54:20;100284.00;;;10.20
15626;BMP180;7912;51.376;6.126;2022-11-20T14:56:58;100283.00;;;10.30
15626;BMP180;7912;51.376;6.126;2022-11-20T14:59:28;100277.00;;;10.30
15626;BMP180;7912;51.376;6.126;2022-11-20T15:02:03;100274.00;;;10.30
15626;BMP180;7912;51.376;6.126;2022-11-20T15:04:56;100262.00;;;10.20
15626;BMP180;7912;51.376;6.126;2022-11-20T15:07:37;100271.00;;;10.20
15626;BMP180;7912;51.376;6.126;2022-11-20T15:10:11;100266.00;;;10.20
15626;BMP180;7912;51.376;6.126;2022-11-20T15:15:36;100264.00;;;10.20
15626;BMP180;7912;51.376;6.126;2022-11-20T15:18:26;100265.00;;;10.30
15626;BMP180;7912;51.376;6.126;2022-11-20T15:20:58;100252.00;;;10.30
15626;BMP180;7912;51.376;6.126;2022-11-20T15:23:27;100246.00;;;10.30
15626;BMP180;7912;51.376;6.126;2022-11-20T15:25:55;100248.00;;;10.30
15626;BMP180;7912;51.376;6.126;2022-11-20T15:28:46;100247.00;;;10.30
15626;BMP180;7912;51.376;6.126;2022-11-20T15:31:21;100244.00;;;10.30
15626;BMP180;7912;51.376;6.126;2022-11-20T15:33:49;100232.00;;;10.20
15626;BMP180;7912;51.376;6.126;2022-11-20T15:36:17;100219.00;;;10.20
15626;BMP180;7912;51.376;6.126;2022-11-20T15:38:47;100207.00;;;10.20
15626;BMP180;7912;51.376;6.126;2022-11-20T15:41:14;100200.00;;;10.20
15626;BMP180;7912;51.376;6.126;2022-11-20T15:43:41;100202.00;;;10.20
15626;BMP180;7912;51.376;6.126;2022-11-20T15:46:16;100184.00;;;10.20
15626;BMP180;7912;51.376;6.126;2022-11-20T15:48:57;100187.00;;;10.20
15626;BMP180;7912;51.376;6.126;2022-11-20T15:51:34;100182.00;;;10.10
15626;BMP180;7912;51.376;6.126;2022-11-20T15:54:14;100173.00;;;10.10
15626;BMP180;7912;51.376;6.126;2022-11-20T15:56:42;100173.00;;;10.10
15626;BMP180;7912;51.376;6.126;2022-11-20T15:59:13;100159.00;;;10.10
15626;BMP180;7912;51.376;6.126;2022-11-20T16:01:42;100171.00;;;10.10
15626;BMP180;7912;51.376;6.126;2022-11-20T16:04:12;100156.00;;;10.10
15626;BMP180;7912;51.376;6.126;2022-11-20T16:06:41;100158.00;;;10.10
15626;BMP180;7912;51.376;6.126;2022-11-20T16:09:09;100153.00;;;10.10
15626;BMP180;7912;51.376;6.126;2022-11-20T16:11:36;100136.00;;;10.10
15626;BMP180;7912;51.376;6.126;2022-11-20T16:14:05;100130.00;;;10.10
15626;BMP180;7912;51.376;6.126;2022-11-20T16:16:52;100133.00;;;10.10
15626;BMP180;7912;51.376;6.126;2022-11-20T16:19:20;100134.00;;;10.10
15626;BMP180;7912;51.376;6.126;2022-11-20T16:21:48;100120.00;;;10.10
15626;BMP180;7912;51.376;6.126;2022-11-20T16:24:15;100112.00;;;10.10
15626;BMP180;7912;51.376;6.126;2022-11-20T16:26:43;100107.00;;;10.10
15626;BMP180;7912;51.376;6.126;2022-11-20T16:29:10;100110.00;;;10.10
15626;BMP180;7912;51.376;6.126;2022-11-20T16:31:38;100098.00;;;10.00